Time,TemperatureF,DewpointF,PressureIn,WindDirection,WindDirectionDegrees,WindSpeedMPH,WindSpeedGustMPH,Humidity,HourlyPrecipIn,Conditions,Clouds,dailyrainin,SolarRadiationWatts/m^2,SoftwareType,DateUTC
2013-10-23 00:02:00,45.8,45.3,29.68,NNE,16,0.0,2.0,98,0.00,,,0.00,0,Wunderground v.1.15,2013-10-23 07:02:00,
2013-10-23 00:07:00,45.8,45.3,29.68,NNE,16,0.0,2.0,98,0.00,,,0.00,0,Wunderground v.1.15,2013-10-23 07:07:00,
2013-10-23 00:12:00,45.8,45.3,29.68,NNE,16,1.0,1.0,98,0.00,,,0.00,0,Wunderground v.1.15,2013-10-23 07:12:00,
2013-10-23 00:17:00,45.7,45.2,29.68,NNE,16,1.0,2.0,98,0.00,,,0.00,0,Wunderground v.1.15,2013-10-23 07:17:00,
2013-10-23 00:22:00,45.5,45.0,29.68,NNE,16,1.0,2.0,98,0.00,,,0.00,0,Wunderground v.1.15,2013-10-23 07:22:00,
2013-10-23 00:27:00,45.6,45.1,29.68,NNE,16,0.0,2.0,98,0.00,,,0.00,0,Wunderground v.1.15,2013-10-23 07:27:00,
2013-10-23 00:32:00,45.5,45.0,29.68,NNE,16,0.0,2.0,98,0.00,,,0.00,0,Wunderground v.1.15,2013-10-23 07:32:00,
2013-10-23 00:36:00,45.4,44.9,29.68,NNE,16,0.0,2.0,98,0.00,,,0.00,0,Wunderground v.1.15,2013-10-23 07:36:00,
2013-10-23 00:41:00,45.3,44.8,29.68,NNE,16,0.0,1.0,98,0.00,,,0.00,0,Wunderground v.1.15,2013-10-23 07:41:00,
2013-10-23 00:46:00,45.2,44.7,29.68,NE,52,0.0,2.0,98,0.00,,,0.00,0,Wunderground v.1.15,2013-10-23 07:46:00,
2013-10-23 00:51:00,45.3,44.8,29.68,NE,52,0.0,1.0,98,0.00,,,0.00,0,Wunderground v.1.15,2013-10-23 07:51:00,
2013-10-23 00:56:00,45.2,44.7,29.68,NE,52,0.0,1.0,98,0.00,,,0.00,0,Wunderground v.1.15,2013-10-23 07:56:00,
2013-10-23 01:01:00,45.2,44.7,29.68,NE,52,2.0,2.0,98,0.00,,,0.00,0,Wunderground v.1.15,2013-10-23 08:01:00,
2013-10-23 01:06:00,45.2,44.7,29.68,NE,52,0.0,2.0,98,0.00,,,0.00,0,Wunderground v.1.15,2013-10-23 08:06:00,
2013-10-23 01:11:00,45.3,44.8,29.68,NE,52,0.0,1.0,98,0.00,,,0.00,0,Wunderground v.1.15,2013-10-23 08:11:00,
2013-10-23 01:16:00,45.4,44.9,29.68,NE,52,0.0,1.0,98,0.00,,,0.00,0,Wunderground v.1.15,2013-10-23 08:16:00,
2013-10-23 01:21:00,45.5,45.0,29.68,NE,52,1.0,2.0,98,0.00,,,0.00,0,Wunderground v.1.15,2013-10-23 08:21:00,
2013-10-23 01:26:00,45.5,45.0,29.68,NE,54,0.0,3.0,98,0.00,,,0.00,0,Wunderground v.1.15,2013-10-23 08:26:00,
2013-10-23 01:31:00,45.6,45.1,29.68,NE,51,1.0,2.0,98,0.00,,,0.00,0,Wunderground v.1.15,2013-10-23 08:31:00,
2013-10-23 01:36:00,45.5,45.0,29.68,NE,51,1.0,2.0,98,0.00,,,0.00,0,Wunderground v.1.15,2013-10-23 08:36:00,
2013-10-23 01:41:00,45.4,44.9,29.68,NE,51,1.0,2.0,98,0.00,,,0.00,0,Wunderground v.1.15,2013-10-23 08:41:00,
2013-10-23 01:46:00,45.1,44.6,29.68,NE,55,1.0,3.0,98,0.00,,,0.00,0,Wunderground v.1.15,2013-10-23 08:46:00,
2013-10-23 01:51:00,44.9,44.4,29.67,NE,55,2.0,2.0,98,0.00,,,0.00,0,Wunderground v.1.15,2013-10-23 08:51:00,
2013-10-23 01:56:00,45.0,44.5,29.67,NE,55,1.0,2.0,98,0.00,,,0.00,0,Wunderground v.1.15,2013-10-23 08:56:00,
2013-10-23 02:01:00,44.9,44.4,29.68,NE,55,1.0,1.0,98,0.00,,,0.00,0,Wunderground v.1.15,2013-10-23 09:01:00,
2013-10-23 02:06:00,44.7,44.2,29.68,NE,55,1.0,2.0,98,0.00,,,0.00,0,Wunderground v.1.15,2013-10-23 09:06:00,
2013-10-23 02:11:00,44.7,44.2,29.68,NE,55,0.0,1.0,98,0.00,,,0.00,0,Wunderground v.1.15,2013-10-23 09:11:00,
2013-10-23 02:16:00,44.6,44.1,29.68,NE,55,1.0,3.0,98,0.00,,,0.00,0,Wunderground v.1.15,2013-10-23 09:16:00,
2013-10-23 02:21:00,44.7,44.2,29.68,NE,55,0.0,1.0,98,0.00,,,0.00,0,Wunderground v.1.15,2013-10-23 09:21:00,
2013-10-23 02:26:00,44.7,44.4,29.68,NE,55,1.0,2.0,99,0.00,,,0.00,0,Wunderground v.1.15,2013-10-23 09:26:00,
2013-10-23 02:31:00,44.8,44.3,29.68,NE,55,0.0,1.0,98,0.00,,,0.00,0,Wunderground v.1.15,2013-10-23 09:31:00,
2013-10-23 02:36:00,44.8,44.3,29.68,NE,55,1.0,3.0,98,0.00,,,0.00,0,Wunderground v.1.15,2013-10-23 09:36:00,
2013-10-23 02:41:00,44.8,44.3,29.68,NE,55,2.0,2.0,98,0.00,,,0.00,0,Wunderground v.1.15,2013-10-23 09:41:00,
2013-10-23 02:46:00,44.9,44.4,29.68,NE,55,2.0,2.0,98,0.00,,,0.00,0,Wunderground v.1.15,2013-10-23 09:46:00,
2013-10-23 02:51:00,44.9,44.4,29.68,NE,55,0.0,1.0,98,0.00,,,0.00,0,Wunderground v.1.15,2013-10-23 09:51:00,
2013-10-23 02:56:00,44.9,44.6,29.68,NE,55,2.0,2.0,99,0.00,,,0.00,0,Wunderground v.1.15,2013-10-23 09:56:00,
2013-10-23 03:01:00,44.9,44.6,29.67,NE,55,0.0,0.0,99,0.00,,,0.00,0,Wunderground v.1.15,2013-10-23 10:01:00,
2013-10-23 03:06:00,45.0,44.7,29.67,NE,55,0.0,2.0,99,0.00,,,0.00,0,Wunderground v.1.15,2013-10-23 10:06:00,
2013-10-23 03:11:00,45.0,44.7,29.67,NE,55,0.0,1.0,99,0.00,,,0.00,0,Wunderground v.1.15,2013-10-23 10:11:00,
2013-10-23 03:16:00,45.0,44.7,29.67,NE,55,0.0,2.0,99,0.00,,,0.00,0,Wunderground v.1.15,2013-10-23 10:16:00,
2013-10-23 03:21:00,44.9,44.6,29.67,NE,55,1.0,1.0,99,0.00,,,0.00,0,Wunderground v.1.15,2013-10-23 10:21:00,
2013-10-23 03:26:00,44.8,44.5,29.67,NE,55,1.0,2.0,99,0.00,,,0.00,0,Wunderground v.1.15,2013-10-23 10:26:00,
2013-10-23 03:31:00,44.9,44.6,29.67,NE,55,0.0,1.0,99,0.00,,,0.00,0,Wunderground v.1.15,2013-10-23 10:31:00,
2013-10-23 03:36:00,44.9,44.6,29.67,NE,55,1.0,2.0,99,0.00,,,0.00,0,Wunderground v.1.15,2013-10-23 10:36:00,
2013-10-23 03:41:00,45.0,44.7,29.67,NE,55,0.0,0.0,99,0.00,,,0.00,0,Wunderground v.1.15,2013-10-23 10:41:00,
2013-10-23 03:46:00,45.2,44.9,29.67,NE,55,0.0,1.0,99,0.00,,,0.00,0,Wunderground v.1.15,2013-10-23 10:46:00,
2013-10-23 03:51:00,45.2,44.9,29.67,NE,55,0.0,0.0,99,0.00,,,0.00,0,Wunderground v.1.15,2013-10-23 10:51:00,
2013-10-23 03:56:00,45.2,44.9,29.67,NE,55,0.0,1.0,99,0.00,,,0.00,0,Wunderground v.1.15,2013-10-23 10:56:00,
2013-10-23 04:01:00,45.1,44.8,29.67,NE,55,1.0,2.0,99,0.00,,,0.00,0,Wunderground v.1.15,2013-10-23 11:01:00,
2013-10-23 04:06:00,45.0,44.7,29.67,NE,55,0.0,2.0,99,0.00,,,0.00,0,Wunderground v.1.15,2013-10-23 11:06:00,
2013-10-23 04:11:00,44.8,44.5,29.67,NE,55,0.0,1.0,99,0.00,,,0.00,0,Wunderground v.1.15,2013-10-23 11:11:00,
2013-10-23 04:16:00,44.7,44.4,29.67,NE,55,0.0,2.0,99,0.00,,,0.00,0,Wunderground v.1.15,2013-10-23 11:16:00,
2013-10-23 04:21:00,44.8,44.5,29.67,NE,55,0.0,0.0,99,0.00,,,0.00,0,Wunderground v.1.15,2013-10-23 11:21:00,
2013-10-23 04:26:00,44.7,44.4,29.67,NE,55,0.0,2.0,99,0.00,,,0.00,0,Wunderground v.1.15,2013-10-23 11:26:00,
2013-10-23 04:31:00,44.7,44.4,29.67,NE,55,1.0,2.0,99,0.00,,,0.00,0,Wunderground v.1.15,2013-10-23 11:31:00,
2013-10-23 04:36:00,44.5,44.2,29.67,NE,55,1.0,2.0,99,0.00,,,0.00,0,Wunderground v.1.15,2013-10-23 11:36:00,
2013-10-23 04:41:00,44.5,44.2,29.67,NE,55,0.0,2.0,99,0.00,,,0.00,0,Wunderground v.1.15,2013-10-23 11:41:00,
2013-10-23 04:46:00,44.6,44.3,29.67,NE,54,1.0,3.0,99,0.00,,,0.00,0,Wunderground v.1.15,2013-10-23 11:46:00,
2013-10-23 04:51:00,44.5,44.2,29.67,NE,53,0.0,2.0,99,0.00,,,0.00,0,Wunderground v.1.15,2013-10-23 11:51:00,
2013-10-23 04:56:00,44.7,44.4,29.67,NE,53,0.0,3.0,99,0.00,,,0.00,0,Wunderground v.1.15,2013-10-23 11:56:00,
2013-10-23 05:01:00,44.8,44.5,29.67,NE,49,0.0,1.0,99,0.00,,,0.00,0,Wunderground v.1.15,2013-10-23 12:01:00,
2013-10-23 05:06:00,44.8,44.5,29.67,NE,49,1.0,2.0,99,0.00,,,0.00,0,Wunderground v.1.15,2013-10-23 12:06:00,
2013-10-23 05:11:00,44.8,44.5,29.67,NE,49,1.0,1.0,99,0.00,,,0.00,0,Wunderground v.1.15,2013-10-23 12:11:00,
2013-10-23 05:16:00,44.9,44.6,29.67,NE,49,1.0,2.0,99,0.00,,,0.00,0,Wunderground v.1.15,2013-10-23 12:16:00,
2013-10-23 05:21:00,44.8,44.5,29.67,NE,49,1.0,3.0,99,0.00,,,0.00,0,Wunderground v.1.15,2013-10-23 12:21:00,
2013-10-23 05:26:00,44.8,44.5,29.67,NE,49,1.0,3.0,99,0.00,,,0.00,0,Wunderground v.1.15,2013-10-23 12:26:00,
2013-10-23 05:31:00,44.6,44.3,29.67,NE,49,1.0,2.0,99,0.00,,,0.00,0,Wunderground v.1.15,2013-10-23 12:31:00,
2013-10-23 05:36:00,44.5,44.2,29.67,NE,49,0.0,2.0,99,0.00,,,0.00,0,Wunderground v.1.15,2013-10-23 12:36:00,
2013-10-23 05:41:00,44.7,44.4,29.66,NE,49,0.0,1.0,99,0.00,,,0.00,0,Wunderground v.1.15,2013-10-23 12:41:00,
2013-10-23 05:46:00,44.8,44.5,29.66,NE,49,1.0,2.0,99,0.00,,,0.00,0,Wunderground v.1.15,2013-10-23 12:46:00,
2013-10-23 05:51:00,44.7,44.4,29.66,NE,49,1.0,2.0,99,0.00,,,0.00,0,Wunderground v.1.15,2013-10-23 12:51:00,
2013-10-23 05:56:00,44.5,44.2,29.66,NE,49,1.0,2.0,99,0.00,,,0.00,0,Wunderground v.1.15,2013-10-23 12:56:00,
2013-10-23 06:01:00,44.4,44.1,29.66,NE,49,0.0,1.0,99,0.00,,,0.00,0,Wunderground v.1.15,2013-10-23 13:01:00,
2013-10-23 06:06:00,44.6,44.3,29.66,NE,49,0.0,2.0,99,0.00,,,0.00,0,Wunderground v.1.15,2013-10-23 13:06:00,
2013-10-23 06:11:00,44.4,44.1,29.67,NE,51,2.0,3.0,99,0.00,,,0.00,0,Wunderground v.1.15,2013-10-23 13:11:00,
2013-10-23 06:16:00,44.1,43.8,29.67,NE,51,0.0,3.0,99,0.00,,,0.00,0,Wunderground v.1.15,2013-10-23 13:16:00,
2013-10-23 06:21:00,44.0,43.7,29.67,NE,51,0.0,1.0,99,0.00,,,0.00,0,Wunderground v.1.15,2013-10-23 13:21:00,
2013-10-23 06:26:00,44.0,43.7,29.66,NE,51,0.0,1.0,99,0.00,,,0.00,0,Wunderground v.1.15,2013-10-23 13:26:00,
2013-10-23 06:31:00,44.0,43.7,29.66,NE,51,0.0,0.0,99,0.00,,,0.00,0,Wunderground v.1.15,2013-10-23 13:31:00,
2013-10-23 06:36:00,44.1,43.8,29.67,NE,51,0.0,1.0,99,0.00,,,0.00,0,Wunderground v.1.15,2013-10-23 13:36:00,
2013-10-23 06:41:00,44.2,43.9,29.67,NE,51,0.0,0.0,99,0.00,,,0.00,0,Wunderground v.1.15,2013-10-23 13:41:00,
2013-10-23 06:46:00,44.2,43.9,29.67,NE,51,0.0,0.0,99,0.00,,,0.00,0,Wunderground v.1.15,2013-10-23 13:46:00,
2013-10-23 06:51:00,44.0,43.7,29.67,NE,51,0.0,1.0,99,0.00,,,0.00,0,Wunderground v.1.15,2013-10-23 13:51:00,
2013-10-23 06:56:00,43.9,43.6,29.67,NE,51,1.0,2.0,99,0.00,,,0.00,0,Wunderground v.1.15,2013-10-23 13:56:00,
2013-10-23 07:01:00,44.0,43.7,29.67,NE,51,1.0,1.0,99,0.00,,,0.00,0,Wunderground v.1.15,2013-10-23 14:01:00,
2013-10-23 07:06:00,44.0,43.7,29.67,NE,51,0.0,2.0,99,0.00,,,0.00,0,Wunderground v.1.15,2013-10-23 14:06:00,
2013-10-23 07:11:00,43.8,43.5,29.67,NE,51,1.0,1.0,99,0.00,,,0.00,0,Wunderground v.1.15,2013-10-23 14:11:00,
2013-10-23 07:16:00,43.8,43.5,29.67,NE,51,1.0,2.0,99,0.00,,,0.00,0,Wunderground v.1.15,2013-10-23 14:16:00,
2013-10-23 07:21:00,43.9,43.6,29.67,NE,51,1.0,2.0,99,0.00,,,0.00,0,Wunderground v.1.15,2013-10-23 14:21:00,
2013-10-23 07:26:00,44.2,43.9,29.67,NE,51,0.0,2.0,99,0.00,,,0.00,0,Wunderground v.1.15,2013-10-23 14:26:00,
2013-10-23 07:31:00,44.1,43.8,29.67,NE,51,0.0,1.0,99,0.00,,,0.00,0,Wunderground v.1.15,2013-10-23 14:31:00,
2013-10-23 07:36:00,44.1,43.8,29.67,NE,51,0.0,1.0,99,0.00,,,0.00,0,Wunderground v.1.15,2013-10-23 14:36:00,
2013-10-23 07:41:00,44.2,43.9,29.67,NE,51,1.0,1.0,99,0.00,,,0.00,0,Wunderground v.1.15,2013-10-23 14:41:00,
2013-10-23 07:46:00,44.2,43.9,29.67,NE,51,2.0,4.0,99,0.00,,,0.00,0,Wunderground v.1.15,2013-10-23 14:46:00,
2013-10-23 07:51:00,43.7,43.4,29.67,NE,51,1.0,2.0,99,0.00,,,0.00,5,Wunderground v.1.15,2013-10-23 14:51:00,
2013-10-23 07:56:00,43.9,43.6,29.67,NE,51,0.0,2.0,99,0.00,,,0.00,7,Wunderground v.1.15,2013-10-23 14:56:00,
2013-10-23 08:01:00,43.9,43.6,29.67,NE,51,1.0,1.0,99,0.00,,,0.00,9,Wunderground v.1.15,2013-10-23 15:01:00,
2013-10-23 08:06:00,44.0,43.7,29.67,NE,51,2.0,2.0,99,0.00,,,0.00,14,Wunderground v.1.15,2013-10-23 15:06:00,
2013-10-23 08:11:00,43.7,43.4,29.67,NE,51,0.0,1.0,99,0.00,,,0.00,12,Wunderground v.1.15,2013-10-23 15:11:00,
2013-10-23 08:16:00,43.9,43.6,29.68,NE,51,1.0,2.0,99,0.00,,,0.00,21,Wunderground v.1.15,2013-10-23 15:16:00,
2013-10-23 08:21:00,43.9,43.6,29.68,NE,51,1.0,1.0,99,0.00,,,0.00,32,Wunderground v.1.15,2013-10-23 15:21:00,
2013-10-23 08:26:00,43.8,43.5,29.68,NE,51,1.0,2.0,99,0.00,,,0.00,33,Wunderground v.1.15,2013-10-23 15:26:00,
2013-10-23 08:31:00,43.6,43.3,29.68,NE,51,1.0,1.0,99,0.00,,,0.00,33,Wunderground v.1.15,2013-10-23 15:31:00,
2013-10-23 08:36:00,43.7,43.4,29.68,NE,51,0.0,1.0,99,0.00,,,0.00,32,Wunderground v.1.15,2013-10-23 15:36:00,
2013-10-23 08:40:00,43.7,43.4,29.68,NE,51,1.0,2.0,99,0.00,,,0.00,32,Wunderground v.1.15,2013-10-23 15:40:00,
2013-10-23 08:45:00,43.7,43.4,29.68,NE,51,0.0,2.0,99,0.00,,,0.00,35,Wunderground v.1.15,2013-10-23 15:45:00,
2013-10-23 08:50:00,43.7,43.4,29.68,NE,51,0.0,0.0,99,0.00,,,0.00,58,Wunderground v.1.15,2013-10-23 15:50:00,
2013-10-23 08:55:00,43.7,43.4,29.68,NE,51,0.0,1.0,99,0.00,,,0.00,58,Wunderground v.1.15,2013-10-23 15:55:00,
2013-10-23 09:00:00,44.0,43.7,29.68,NE,51,1.0,1.0,99,0.00,,,0.00,56,Wunderground v.1.15,2013-10-23 16:00:00,
2013-10-23 09:05:00,44.2,43.9,29.68,NE,51,1.0,1.0,99,0.00,,,0.00,63,Wunderground v.1.15,2013-10-23 16:05:00,
2013-10-23 09:10:00,44.4,44.1,29.68,NE,51,0.0,1.0,99,0.00,,,0.00,62,Wunderground v.1.15,2013-10-23 16:10:00,
2013-10-23 09:15:00,44.3,44.0,29.68,NE,51,0.0,2.0,99,0.00,,,0.00,70,Wunderground v.1.15,2013-10-23 16:15:00,
2013-10-23 09:20:00,44.5,44.2,29.69,NE,51,0.0,1.0,99,0.00,,,0.00,70,Wunderground v.1.15,2013-10-23 16:20:00,
2013-10-23 09:25:00,44.4,44.1,29.69,NE,51,0.0,2.0,99,0.00,,,0.00,70,Wunderground v.1.15,2013-10-23 16:25:00,
2013-10-23 09:30:00,44.6,44.3,29.69,NE,51,0.0,0.0,99,0.00,,,0.00,70,Wunderground v.1.15,2013-10-23 16:30:00,
2013-10-23 09:35:00,44.7,44.4,29.69,NE,51,0.0,1.0,99,0.00,,,0.00,79,Wunderground v.1.15,2013-10-23 16:35:00,
2013-10-23 09:40:00,45.0,44.7,29.69,NE,51,0.0,1.0,99,0.00,,,0.00,90,Wunderground v.1.15,2013-10-23 16:40:00,
2013-10-23 09:45:00,45.3,45.0,29.69,NE,51,0.0,1.0,99,0.00,,,0.00,90,Wunderground v.1.15,2013-10-23 16:45:00,
2013-10-23 09:50:00,45.3,45.0,29.69,NE,51,1.0,2.0,99,0.00,,,0.00,88,Wunderground v.1.15,2013-10-23 16:50:00,
2013-10-23 09:55:00,45.2,44.9,29.69,NE,51,1.0,2.0,99,0.00,,,0.00,114,Wunderground v.1.15,2013-10-23 16:55:00,
2013-10-23 10:00:00,45.2,44.9,29.69,NE,51,0.0,1.0,99,0.00,,,0.00,114,Wunderground v.1.15,2013-10-23 17:00:00,
2013-10-23 10:05:00,45.8,45.5,29.69,NE,51,1.0,1.0,99,0.00,,,0.00,111,Wunderground v.1.15,2013-10-23 17:05:00,
2013-10-23 10:10:00,45.8,45.5,29.69,NE,51,1.0,2.0,99,0.00,,,0.00,120,Wunderground v.1.15,2013-10-23 17:10:00,
2013-10-23 10:15:00,45.7,45.4,29.69,NE,51,0.0,2.0,99,0.00,,,0.00,132,Wunderground v.1.15,2013-10-23 17:15:00,
2013-10-23 10:20:00,45.6,45.3,29.69,NE,51,1.0,1.0,99,0.00,,,0.00,137,Wunderground v.1.15,2013-10-23 17:20:00,
2013-10-23 10:25:00,45.7,45.4,29.69,NE,51,1.0,2.0,99,0.00,,,0.00,135,Wunderground v.1.15,2013-10-23 17:25:00,
2013-10-23 10:30:00,45.2,44.9,29.69,NE,51,0.0,1.0,99,0.00,,,0.00,146,Wunderground v.1.15,2013-10-23 17:30:00,
2013-10-23 10:35:00,45.4,45.1,29.69,NE,51,1.0,1.0,99,0.00,,,0.00,142,Wunderground v.1.15,2013-10-23 17:35:00,
2013-10-23 10:40:00,45.9,45.6,29.68,NE,51,1.0,1.0,99,0.00,,,0.00,144,Wunderground v.1.15,2013-10-23 17:40:00,
2013-10-23 10:45:00,45.7,45.4,29.69,NE,51,0.0,2.0,99,0.00,,,0.00,149,Wunderground v.1.15,2013-10-23 17:45:00,
2013-10-23 10:50:00,46.2,45.9,29.69,NE,51,0.0,2.0,99,0.00,,,0.00,153,Wunderground v.1.15,2013-10-23 17:50:00,
2013-10-23 10:55:00,46.0,46.0,29.69,NE,51,1.0,3.0,100,0.00,,,0.00,149,Wunderground v.1.15,2013-10-23 17:55:00,
2013-10-23 11:00:00,46.0,46.0,29.69,NE,51,0.0,1.0,100,0.00,,,0.00,183,Wunderground v.1.15,2013-10-23 18:00:00,
2013-10-23 11:05:00,46.1,46.1,29.69,NE,51,0.0,2.0,100,0.00,,,0.00,167,Wunderground v.1.15,2013-10-23 18:05:00,
2013-10-23 11:10:00,46.3,46.3,29.69,NE,51,0.0,1.0,100,0.00,,,0.00,202,Wunderground v.1.15,2013-10-23 18:10:00,
2013-10-23 11:15:00,46.4,46.4,29.69,NE,51,0.0,2.0,100,0.00,,,0.00,188,Wunderground v.1.15,2013-10-23 18:15:00,
2013-10-23 11:20:00,46.6,46.6,29.69,NE,51,0.0,1.0,100,0.00,,,0.00,160,Wunderground v.1.15,2013-10-23 18:20:00,
2013-10-23 11:25:00,47.2,47.2,29.69,NE,51,0.0,2.0,100,0.00,,,0.00,163,Wunderground v.1.15,2013-10-23 18:25:00,
2013-10-23 11:30:00,46.8,46.8,29.69,NE,51,1.0,1.0,100,0.00,,,0.00,188,Wunderground v.1.15,2013-10-23 18:30:00,
2013-10-23 11:35:00,46.9,46.9,29.69,NE,49,0.0,2.0,100,0.00,,,0.00,181,Wunderground v.1.15,2013-10-23 18:35:00,
2013-10-23 11:40:00,46.9,46.9,29.69,NE,49,0.0,1.0,100,0.00,,,0.00,193,Wunderground v.1.15,2013-10-23 18:40:00,
2013-10-23 11:45:00,46.7,46.7,29.69,NE,49,1.0,2.0,100,0.00,,,0.00,207,Wunderground v.1.15,2013-10-23 18:45:00,
2013-10-23 11:50:00,47.1,47.1,29.69,NE,49,0.0,1.0,100,0.00,,,0.00,244,Wunderground v.1.15,2013-10-23 18:50:00,
2013-10-23 11:55:00,47.8,47.8,29.69,NE,49,0.0,1.0,100,0.00,,,0.01,253,Wunderground v.1.15,2013-10-23 18:55:00,
2013-10-23 12:00:00,48.2,48.2,29.69,NE,49,2.0,2.0,100,0.00,,,0.01,241,Wunderground v.1.15,2013-10-23 19:00:00,
2013-10-23 12:05:00,47.9,47.9,29.69,NE,49,0.0,2.0,100,0.00,,,0.01,253,Wunderground v.1.15,2013-10-23 19:05:00,
2013-10-23 12:10:00,48.2,48.2,29.69,NE,49,1.0,1.0,100,0.00,,,0.01,306,Wunderground v.1.15,2013-10-23 19:10:00,
2013-10-23 12:15:00,48.5,48.5,29.69,NE,49,1.0,2.0,100,0.00,,,0.01,278,Wunderground v.1.15,2013-10-23 19:15:00,
2013-10-23 12:20:00,48.6,48.6,29.68,NE,49,1.0,2.0,100,0.00,,,0.01,425,Wunderground v.1.15,2013-10-23 19:20:00,
2013-10-23 12:25:00,49.3,49.3,29.68,NE,49,1.0,2.0,100,0.00,,,0.01,548,Wunderground v.1.15,2013-10-23 19:25:00,
2013-10-23 12:30:00,50.3,50.3,29.68,NE,49,2.0,2.0,100,0.00,,,0.01,510,Wunderground v.1.15,2013-10-23 19:30:00,
2013-10-23 12:35:00,51.0,51.0,29.68,ESE,109,3.0,3.0,100,0.00,,,0.01,496,Wunderground v.1.15,2013-10-23 19:35:00,
2013-10-23 12:40:00,51.3,51.0,29.68,SSE,157,3.0,4.0,99,0.00,,,0.01,499,Wunderground v.1.15,2013-10-23 19:40:00,
2013-10-23 12:45:00,51.1,50.3,29.67,SSE,165,2.0,4.0,97,0.00,,,0.01,499,Wunderground v.1.15,2013-10-23 19:45:00,
2013-10-23 12:50:00,51.2,50.1,29.67,SSE,165,2.0,3.0,96,0.00,,,0.01,497,Wunderground v.1.15,2013-10-23 19:50:00,
2013-10-23 12:55:00,51.5,50.4,29.67,SSE,165,2.0,4.0,96,0.00,,,0.01,492,Wunderground v.1.15,2013-10-23 19:55:00,
2013-10-23 13:00:00,51.6,49.9,29.67,SSE,165,1.0,2.0,94,0.00,,,0.01,497,Wunderground v.1.15,2013-10-23 20:00:00,
2013-10-23 13:05:00,52.4,50.4,29.66,SSE,165,2.0,3.0,93,0.00,,,0.01,494,Wunderground v.1.15,2013-10-23 20:05:00,
2013-10-23 13:10:00,53.1,50.5,29.66,SSE,166,2.0,3.0,91,0.00,,,0.01,496,Wunderground v.1.15,2013-10-23 20:10:00,
2013-10-23 13:15:00,53.3,50.1,29.66,SSE,165,1.0,3.0,89,0.00,,,0.01,492,Wunderground v.1.15,2013-10-23 20:15:00,
2013-10-23 13:20:00,53.0,50.1,29.66,SSE,150,2.0,3.0,90,0.00,,,0.01,492,Wunderground v.1.15,2013-10-23 20:20:00,
2013-10-23 13:25:00,52.9,49.4,29.65,SSE,150,1.0,3.0,88,0.00,,,0.01,492,Wunderground v.1.15,2013-10-23 20:25:00,
2013-10-23 13:30:00,53.4,49.6,29.65,SSE,153,2.0,3.0,87,0.00,,,0.01,489,Wunderground v.1.15,2013-10-23 20:30:00,
2013-10-23 13:35:00,53.2,49.4,29.65,SSE,153,2.0,3.0,87,0.00,,,0.01,487,Wunderground v.1.15,2013-10-23 20:35:00,
2013-10-23 13:40:00,53.4,49.3,29.65,SSE,154,1.0,2.0,86,0.00,,,0.01,483,Wunderground v.1.15,2013-10-23 20:40:00,
2013-10-23 13:45:00,53.2,49.4,29.65,South,187,3.0,4.0,87,0.00,,,0.01,478,Wunderground v.1.15,2013-10-23 20:45:00,
2013-10-23 13:50:00,52.6,48.8,29.64,South,169,2.0,2.0,87,0.00,,,0.01,480,Wunderground v.1.15,2013-10-23 20:50:00,
2013-10-23 13:55:00,53.1,49.3,29.64,South,169,2.0,3.0,87,0.00,,,0.01,473,Wunderground v.1.15,2013-10-23 20:55:00,
2013-10-23 14:00:00,53.2,48.8,29.64,South,169,1.0,2.0,85,0.00,,,0.01,471,Wunderground v.1.15,2013-10-23 21:00:00,
2013-10-23 14:05:00,52.6,48.8,29.63,South,169,1.0,4.0,87,0.00,,,0.01,464,Wunderground v.1.15,2013-10-23 21:05:00,
2013-10-23 14:10:00,52.7,48.9,29.63,South,169,1.0,3.0,87,0.00,,,0.01,455,Wunderground v.1.15,2013-10-23 21:10:00,
2013-10-23 14:15:00,53.1,49.0,29.63,South,169,1.0,4.0,86,0.00,,,0.01,454,Wunderground v.1.15,2013-10-23 21:15:00,
2013-10-23 14:20:00,52.9,48.8,29.63,South,169,0.0,1.0,86,0.00,,,0.01,446,Wunderground v.1.15,2013-10-23 21:20:00,
2013-10-23 14:25:00,53.6,49.5,29.62,South,169,3.0,4.0,86,0.00,,,0.01,441,Wunderground v.1.15,2013-10-23 21:25:00,
2013-10-23 14:30:00,54.7,50.0,29.62,South,169,1.0,1.0,84,0.00,,,0.01,436,Wunderground v.1.15,2013-10-23 21:30:00,
2013-10-23 14:35:00,55.1,50.0,29.62,South,169,0.0,3.0,83,0.00,,,0.01,427,Wunderground v.1.15,2013-10-23 21:35:00,
2013-10-23 14:40:00,55.4,50.3,29.62,South,169,2.0,2.0,83,0.00,,,0.01,420,Wunderground v.1.15,2013-10-23 21:40:00,
2013-10-23 14:45:00,55.1,49.7,29.62,South,169,2.0,4.0,82,0.00,,,0.01,411,Wunderground v.1.15,2013-10-23 21:45:00,
2013-10-23 14:50:00,55.5,50.1,29.62,SW,235,2.0,3.0,82,0.00,,,0.01,404,Wunderground v.1.15,2013-10-23 21:50:00,
2013-10-23 14:55:00,55.8,50.1,29.62,West,279,0.0,4.0,81,0.00,,,0.01,399,Wunderground v.1.15,2013-10-23 21:55:00,
2013-10-23 15:00:00,56.3,50.2,29.62,WSW,245,0.0,2.0,80,0.00,,,0.01,388,Wunderground v.1.15,2013-10-23 22:00:00,
2013-10-23 15:05:00,56.6,50.5,29.62,SW,232,3.0,4.0,80,0.00,,,0.01,381,Wunderground v.1.15,2013-10-23 22:05:00,
2013-10-23 15:10:00,56.8,50.4,29.62,WSW,250,3.0,3.0,79,0.00,,,0.01,371,Wunderground v.1.15,2013-10-23 22:10:00,
2013-10-23 15:15:00,56.5,50.4,29.62,West,260,0.0,4.0,80,0.00,,,0.01,360,Wunderground v.1.15,2013-10-23 22:15:00,
2013-10-23 15:20:00,56.0,49.9,29.62,West,265,2.0,2.0,80,0.00,,,0.01,357,Wunderground v.1.15,2013-10-23 22:20:00,
2013-10-23 15:25:00,55.9,50.2,29.62,WSW,251,2.0,5.0,81,0.00,,,0.01,346,Wunderground v.1.15,2013-10-23 22:25:00,
2013-10-23 15:30:00,56.2,50.1,29.62,WSW,243,2.0,3.0,80,0.00,,,0.01,334,Wunderground v.1.15,2013-10-23 22:30:00,
2013-10-23 15:35:00,56.1,50.0,29.62,WSW,252,3.0,4.0,80,0.00,,,0.01,325,Wunderground v.1.15,2013-10-23 22:35:00,
2013-10-23 15:40:00,55.8,50.1,29.62,WSW,238,2.0,2.0,81,0.00,,,0.01,315,Wunderground v.1.15,2013-10-23 22:40:00,
2013-10-23 15:45:00,56.1,50.3,29.62,SW,236,1.0,3.0,81,0.00,,,0.01,304,Wunderground v.1.15,2013-10-23 22:45:00,
2013-10-23 15:50:00,56.3,50.2,29.62,WSW,244,3.0,3.0,80,0.00,,,0.01,295,Wunderground v.1.15,2013-10-23 22:50:00,
2013-10-23 15:55:00,56.2,50.4,29.62,WSW,237,2.0,4.0,81,0.00,,,0.01,285,Wunderground v.1.15,2013-10-23 22:55:00,
2013-10-23 16:00:00,56.3,50.5,29.62,WSW,245,1.0,2.0,81,0.00,,,0.01,279,Wunderground v.1.15,2013-10-23 23:00:00,
2013-10-23 16:05:00,56.4,50.3,29.62,SW,229,0.0,3.0,80,0.00,,,0.01,262,Wunderground v.1.15,2013-10-23 23:05:00,
2013-10-23 16:10:00,56.7,50.6,29.62,SW,229,0.0,1.0,80,0.00,,,0.01,250,Wunderground v.1.15,2013-10-23 23:10:00,
2013-10-23 16:15:00,56.9,50.5,29.62,SW,229,2.0,4.0,79,0.00,,,0.01,239,Wunderground v.1.15,2013-10-23 23:15:00,
2013-10-23 16:20:00,57.1,51.0,29.62,SW,233,3.0,3.0,80,0.00,,,0.01,223,Wunderground v.1.15,2013-10-23 23:20:00,
2013-10-23 16:25:00,57.3,50.8,29.62,SW,234,3.0,3.0,79,0.00,,,0.01,211,Wunderground v.1.15,2013-10-23 23:25:00,
2013-10-23 16:30:00,57.1,50.6,29.62,SW,236,2.0,2.0,79,0.00,,,0.01,197,Wunderground v.1.15,2013-10-23 23:30:00,
2013-10-23 16:35:00,56.9,50.5,29.62,WSW,252,2.0,4.0,79,0.00,,,0.01,183,Wunderground v.1.15,2013-10-23 23:35:00,
2013-10-23 16:40:00,56.6,50.5,29.62,SW,229,2.0,2.0,80,0.00,,,0.01,167,Wunderground v.1.15,2013-10-23 23:40:00,
2013-10-23 16:45:00,56.5,50.4,29.62,SW,234,1.0,4.0,80,0.00,,,0.01,153,Wunderground v.1.15,2013-10-23 23:45:00,
2013-10-23 16:50:00,56.3,50.2,29.62,SW,236,1.0,2.0,80,0.00,,,0.01,139,Wunderground v.1.15,2013-10-23 23:50:00,
2013-10-23 16:55:00,56.3,50.2,29.61,WSW,237,1.0,4.0,80,0.00,,,0.01,118,Wunderground v.1.15,2013-10-23 23:55:00,
2013-10-23 17:00:00,56.2,50.1,29.62,WSW,238,0.0,2.0,80,0.00,,,0.01,113,Wunderground v.1.15,2013-10-24 00:00:00,
2013-10-23 17:05:00,56.2,50.1,29.62,WSW,238,1.0,2.0,80,0.00,,,0.01,97,Wunderground v.1.15,2013-10-24 00:05:00,
2013-10-23 17:10:00,55.9,50.2,29.62,WSW,249,0.0,3.0,81,0.00,,,0.01,84,Wunderground v.1.15,2013-10-24 00:10:00,
2013-10-23 17:15:00,55.5,49.8,29.62,WSW,252,2.0,2.0,81,0.00,,,0.01,72,Wunderground v.1.15,2013-10-24 00:15:00,
2013-10-23 17:20:00,55.6,49.9,29.62,WSW,257,1.0,3.0,81,0.00,,,0.01,60,Wunderground v.1.15,2013-10-24 00:20:00,
2013-10-23 17:25:00,55.4,49.7,29.62,NW,323,2.0,4.0,81,0.00,,,0.01,51,Wunderground v.1.15,2013-10-24 00:25:00,
2013-10-23 17:30:00,55.0,49.3,29.62,NNW,328,1.0,4.0,81,0.00,,,0.01,26,Wunderground v.1.15,2013-10-24 00:30:00,
2013-10-23 17:35:00,54.7,49.0,29.62,NW,322,0.0,2.0,81,0.00,,,0.01,19,Wunderground v.1.15,2013-10-24 00:35:00,
2013-10-23 17:40:00,54.4,48.7,29.62,NW,321,1.0,2.0,81,0.00,,,0.01,16,Wunderground v.1.15,2013-10-24 00:40:00,
2013-10-23 17:45:00,54.2,48.8,29.62,NW,323,2.0,2.0,82,0.00,,,0.01,14,Wunderground v.1.15,2013-10-24 00:45:00,
2013-10-23 17:50:00,54.1,48.7,29.62,NW,323,0.0,2.0,82,0.00,,,0.01,12,Wunderground v.1.15,2013-10-24 00:50:00,
2013-10-23 17:55:00,54.0,48.6,29.62,NW,323,0.0,1.0,82,0.00,,,0.01,9,Wunderground v.1.15,2013-10-24 00:55:00,
2013-10-23 18:00:00,53.8,48.8,29.62,NW,323,0.0,1.0,83,0.00,,,0.01,7,Wunderground v.1.15,2013-10-24 01:00:00,
2013-10-23 18:05:00,53.6,48.2,29.62,NW,323,0.0,2.0,82,0.00,,,0.01,5,Wunderground v.1.15,2013-10-24 01:05:00,
2013-10-23 18:10:00,53.6,48.2,29.62,NW,323,0.0,2.0,82,0.00,,,0.01,0,Wunderground v.1.15,2013-10-24 01:10:00,
2013-10-23 18:15:00,53.5,48.1,29.62,NW,323,1.0,1.0,82,0.00,,,0.01,0,Wunderground v.1.15,2013-10-24 01:15:00,
2013-10-23 18:20:00,53.5,48.5,29.62,NW,323,0.0,3.0,83,0.00,,,0.01,0,Wunderground v.1.15,2013-10-24 01:20:00,
2013-10-23 18:25:00,53.4,48.4,29.62,NW,323,1.0,1.0,83,0.00,,,0.01,0,Wunderground v.1.15,2013-10-24 01:25:00,
2013-10-23 18:29:00,53.3,48.6,29.62,NW,323,1.0,2.0,84,0.00,,,0.01,0,Wunderground v.1.15,2013-10-24 01:29:00,
2013-10-23 18:34:00,53.2,48.5,29.62,NW,323,0.0,3.0,84,0.00,,,0.01,0,Wunderground v.1.15,2013-10-24 01:34:00,
2013-10-23 18:39:00,52.9,48.2,29.62,NW,323,0.0,3.0,84,0.00,,,0.01,0,Wunderground v.1.15,2013-10-24 01:39:00,
2013-10-23 18:44:00,52.8,48.4,29.62,NW,323,0.0,2.0,85,0.00,,,0.01,0,Wunderground v.1.15,2013-10-24 01:44:00,
2013-10-23 18:49:00,52.5,48.4,29.63,NW,323,2.0,2.0,86,0.00,,,0.01,0,Wunderground v.1.15,2013-10-24 01:49:00,
2013-10-23 18:54:00,52.3,48.2,29.63,NW,323,0.0,2.0,86,0.00,,,0.01,0,Wunderground v.1.15,2013-10-24 01:54:00,
2013-10-23 18:59:00,52.0,48.3,29.63,NW,323,1.0,2.0,87,0.00,,,0.01,0,Wunderground v.1.15,2013-10-24 01:59:00,
2013-10-23 19:04:00,51.8,48.1,29.63,NW,323,1.0,1.0,87,0.00,,,0.01,0,Wunderground v.1.15,2013-10-24 02:04:00,
2013-10-23 19:09:00,51.7,48.3,29.63,NW,323,0.0,1.0,88,0.00,,,0.01,0,Wunderground v.1.15,2013-10-24 02:09:00,
2013-10-23 19:14:00,51.4,48.3,29.63,NW,323,0.0,1.0,89,0.00,,,0.01,0,Wunderground v.1.15,2013-10-24 02:14:00,
2013-10-23 19:19:00,51.2,48.1,29.63,NW,323,1.0,1.0,89,0.00,,,0.01,0,Wunderground v.1.15,2013-10-24 02:19:00,
2013-10-23 19:24:00,51.2,48.4,29.63,NW,323,1.0,1.0,90,0.00,,,0.01,0,Wunderground v.1.15,2013-10-24 02:24:00,
2013-10-23 19:29:00,51.0,48.2,29.63,NW,323,0.0,1.0,90,0.00,,,0.01,0,Wunderground v.1.15,2013-10-24 02:29:00,
2013-10-23 19:34:00,50.8,48.3,29.63,NW,323,0.0,1.0,91,0.00,,,0.01,0,Wunderground v.1.15,2013-10-24 02:34:00,
2013-10-23 19:39:00,50.8,48.3,29.63,NW,323,0.0,2.0,91,0.00,,,0.01,0,Wunderground v.1.15,2013-10-24 02:39:00,
2013-10-23 19:44:00,50.8,48.6,29.63,NW,323,0.0,1.0,92,0.00,,,0.01,0,Wunderground v.1.15,2013-10-24 02:44:00,
2013-10-23 19:49:00,50.7,48.2,29.63,NW,323,0.0,1.0,91,0.00,,,0.01,0,Wunderground v.1.15,2013-10-24 02:49:00,
2013-10-23 19:54:00,50.7,48.5,29.63,NW,323,0.0,1.0,92,0.00,,,0.01,0,Wunderground v.1.15,2013-10-24 02:54:00,
2013-10-23 19:59:00,50.6,48.4,29.63,NW,323,1.0,2.0,92,0.00,,,0.01,0,Wunderground v.1.15,2013-10-24 02:59:00,
2013-10-23 20:04:00,50.6,48.4,29.63,NW,323,0.0,2.0,92,0.00,,,0.01,0,Wunderground v.1.15,2013-10-24 03:04:00,
2013-10-23 20:09:00,50.6,48.4,29.63,NW,323,1.0,3.0,92,0.00,,,0.01,0,Wunderground v.1.15,2013-10-24 03:09:00,
2013-10-23 20:14:00,50.5,48.6,29.63,NW,323,1.0,2.0,93,0.00,,,0.01,0,Wunderground v.1.15,2013-10-24 03:14:00,
2013-10-23 20:19:00,50.3,48.4,29.63,NW,323,0.0,2.0,93,0.00,,,0.01,0,Wunderground v.1.15,2013-10-24 03:19:00,
2013-10-23 20:24:00,50.2,48.3,29.63,NW,323,0.0,1.0,93,0.00,,,0.01,0,Wunderground v.1.15,2013-10-24 03:24:00,
2013-10-23 20:29:00,50.1,48.2,29.63,NW,323,1.0,2.0,93,0.00,,,0.01,0,Wunderground v.1.15,2013-10-24 03:29:00,
2013-10-23 20:34:00,50.1,48.4,29.63,NW,323,0.0,1.0,94,0.00,,,0.01,0,Wunderground v.1.15,2013-10-24 03:34:00,
2013-10-23 20:39:00,50.1,48.4,29.63,NW,323,0.0,2.0,94,0.00,,,0.01,0,Wunderground v.1.15,2013-10-24 03:39:00,
2013-10-23 20:44:00,50.1,48.4,29.64,NW,323,0.0,2.0,94,0.00,,,0.01,0,Wunderground v.1.15,2013-10-24 03:44:00,
2013-10-23 20:49:00,50.0,48.3,29.64,NW,323,2.0,2.0,94,0.00,,,0.01,0,Wunderground v.1.15,2013-10-24 03:49:00,
2013-10-23 20:54:00,50.0,48.3,29.64,NW,323,0.0,2.0,94,0.00,,,0.01,0,Wunderground v.1.15,2013-10-24 03:54:00,
2013-10-23 20:59:00,49.9,48.2,29.64,NW,323,0.0,2.0,94,0.00,,,0.01,0,Wunderground v.1.15,2013-10-24 03:59:00,
2013-10-23 21:01:00,49.8,48.1,29.64,NW,323,0.0,0.0,94,0.00,,,0.01,0,Wunderground v.1.15,2013-10-24 04:01:00,
2013-10-23 21:06:00,49.7,48.0,29.64,NW,323,0.0,2.0,94,0.00,,,0.01,0,Wunderground v.1.15,2013-10-24 04:06:00,
2013-10-23 21:11:00,49.6,47.9,29.64,NW,323,0.0,2.0,94,0.00,,,0.01,0,Wunderground v.1.15,2013-10-24 04:11:00,
2013-10-23 21:16:00,49.6,47.9,29.64,NW,323,1.0,2.0,94,0.00,,,0.01,0,Wunderground v.1.15,2013-10-24 04:16:00,
2013-10-23 21:21:00,49.5,48.1,29.64,NW,323,1.0,1.0,95,0.00,,,0.01,0,Wunderground v.1.15,2013-10-24 04:21:00,
2013-10-23 21:26:00,49.5,48.1,29.64,NW,323,0.0,2.0,95,0.00,,,0.01,0,Wunderground v.1.15,2013-10-24 04:26:00,
2013-10-23 21:31:00,49.6,48.2,29.64,NW,323,0.0,1.0,95,0.00,,,0.01,0,Wunderground v.1.15,2013-10-24 04:31:00,
2013-10-23 21:36:00,49.5,48.1,29.64,NW,323,0.0,1.0,95,0.00,,,0.01,0,Wunderground v.1.15,2013-10-24 04:36:00,
2013-10-23 21:41:00,49.4,48.0,29.64,NW,323,1.0,1.0,95,0.00,,,0.01,0,Wunderground v.1.15,2013-10-24 04:41:00,
2013-10-23 21:46:00,49.4,48.0,29.64,NW,323,0.0,1.0,95,0.00,,,0.01,0,Wunderground v.1.15,2013-10-24 04:46:00,
2013-10-23 21:51:00,49.3,47.9,29.64,NW,323,0.0,0.0,95,0.00,,,0.01,0,Wunderground v.1.15,2013-10-24 04:51:00,
2013-10-23 21:56:00,49.2,47.5,29.64,NW,323,0.0,0.0,94,0.00,,,0.01,0,Wunderground v.1.15,2013-10-24 04:56:00,
2013-10-23 22:01:00,49.1,47.7,29.65,NW,323,0.0,0.0,95,0.00,,,0.01,0,Wunderground v.1.15,2013-10-24 05:01:00,
2013-10-23 22:06:00,48.8,47.4,29.65,NW,323,0.0,0.0,95,0.00,,,0.01,0,Wunderground v.1.15,2013-10-24 05:06:00,
2013-10-23 22:11:00,48.7,47.3,29.65,NW,323,0.0,0.0,95,0.00,,,0.01,0,Wunderground v.1.15,2013-10-24 05:11:00,
2013-10-23 22:16:00,48.9,47.5,29.65,NW,323,0.0,0.0,95,0.00,,,0.01,0,Wunderground v.1.15,2013-10-24 05:16:00,
2013-10-23 22:21:00,48.8,47.4,29.65,NW,323,0.0,0.0,95,0.00,,,0.01,0,Wunderground v.1.15,2013-10-24 05:21:00,
2013-10-23 22:26:00,48.6,47.2,29.65,NW,323,0.0,0.0,95,0.00,,,0.01,0,Wunderground v.1.15,2013-10-24 05:26:00,
2013-10-23 22:31:00,48.8,47.4,29.65,NW,323,0.0,1.0,95,0.00,,,0.01,0,Wunderground v.1.15,2013-10-24 05:31:00,
2013-10-23 22:36:00,48.8,47.4,29.65,NW,323,0.0,1.0,95,0.00,,,0.01,0,Wunderground v.1.15,2013-10-24 05:36:00,
2013-10-23 22:41:00,48.6,47.2,29.65,NW,323,0.0,0.0,95,0.00,,,0.01,0,Wunderground v.1.15,2013-10-24 05:41:00,
2013-10-23 22:46:00,48.5,47.1,29.65,NW,323,0.0,0.0,95,0.00,,,0.01,0,Wunderground v.1.15,2013-10-24 05:46:00,
2013-10-23 22:51:00,48.2,46.8,29.65,NW,323,0.0,0.0,95,0.00,,,0.01,0,Wunderground v.1.15,2013-10-24 05:51:00,
2013-10-23 22:56:00,47.8,46.4,29.65,NW,323,0.0,0.0,95,0.00,,,0.01,0,Wunderground v.1.15,2013-10-24 05:56:00,
2013-10-23 23:01:00,47.7,46.3,29.65,NW,323,0.0,0.0,95,0.00,,,0.01,0,Wunderground v.1.15,2013-10-24 06:01:00,
2013-10-23 23:06:00,47.6,46.2,29.65,NW,323,0.0,0.0,95,0.00,,,0.01,0,Wunderground v.1.15,2013-10-24 06:06:00,
2013-10-23 23:11:00,47.6,46.2,29.66,NW,323,0.0,0.0,95,0.00,,,0.01,0,Wunderground v.1.15,2013-10-24 06:11:00,
2013-10-23 23:16:00,47.7,46.6,29.66,NW,323,0.0,0.0,96,0.00,,,0.01,0,Wunderground v.1.15,2013-10-24 06:16:00,
2013-10-23 23:21:00,47.8,46.7,29.65,NW,323,0.0,0.0,96,0.00,,,0.01,0,Wunderground v.1.15,2013-10-24 06:21:00,
2013-10-23 23:26:00,47.9,46.8,29.65,NW,323,0.0,1.0,96,0.00,,,0.01,0,Wunderground v.1.15,2013-10-24 06:26:00,
2013-10-23 23:31:00,48.0,46.9,29.66,NW,323,0.0,0.0,96,0.00,,,0.01,0,Wunderground v.1.15,2013-10-24 06:31:00,
2013-10-23 23:36:00,47.9,46.8,29.66,NW,323,0.0,1.0,96,0.00,,,0.01,0,Wunderground v.1.15,2013-10-24 06:36:00,
2013-10-23 23:41:00,48.0,46.9,29.66,NW,323,0.0,0.0,96,0.00,,,0.01,0,Wunderground v.1.15,2013-10-24 06:41:00,
2013-10-23 23:46:00,47.9,46.8,29.66,NW,323,0.0,1.0,96,0.00,,,0.01,0,Wunderground v.1.15,2013-10-24 06:46:00,
2013-10-23 23:51:00,47.7,46.6,29.66,NW,323,0.0,0.0,96,0.00,,,0.01,0,Wunderground v.1.15,2013-10-24 06:51:00,
2013-10-23 23:56:00,47.6,46.5,29.66,NW,323,0.0,1.0,96,0.00,,,0.01,0,Wunderground v.1.15,2013-10-24 06:56:00,